sensor_id;sensor_type;location;lat;lon;timestamp;temperature;humidity
54930;DHT22;40833;53.238;6.576;2024-03-23T00:55:24;5.60;99.90
54930;DHT22;40833;53.238;6.576;2024-03-23T00:57:50;5.60;99.90
54930;DHT22;40833;53.238;6.576;2024-03-23T01:00:16;5.80;99.90
54930;DHT22;40833;53.238;6.576;2024-03-23T01:02:41;5.60;99.90
54930;DHT22;40833;53.238;6.576;2024-03-23T01:05:07;5.80;99.90
54930;DHT22;40833;53.238;6.576;2024-03-23T01:07:33;5.50;99.90
54930;DHT22;40833;53.238;6.576;2024-03-23T01:09:59;5.40;99.90
54930;DHT22;40833;53.238;6.576;2024-03-23T01:12:24;5.40;99.90
54930;DHT22;40833;53.238;6.576;2024-03-23T01:14:50;6.20;99.90
54930;DHT22;40833;53.238;6.576;2024-03-23T01:17:15;5.30;99.90
54930;DHT22;40833;53.238;6.576;2024-03-23T01:19:41;5.30;99.90
54930;DHT22;40833;53.238;6.576;2024-03-23T01:22:08;5.00;99.90
54930;DHT22;40833;53.238;6.576;2024-03-23T01:24:35;6.10;99.90
54930;DHT22;40833;53.238;6.576;2024-03-23T01:27:01;5.30;99.90
54930;DHT22;40833;53.238;6.576;2024-03-23T01:29:27;5.50;99.90
54930;DHT22;40833;53.238;6.576;2024-03-23T01:31:53;5.40;99.90
54930;DHT22;40833;53.238;6.576;2024-03-23T01:34:18;5.30;99.90
54930;DHT22;40833;53.238;6.576;2024-03-23T01:36:46;7.00;99.90
54930;DHT22;40833;53.238;6.576;2024-03-23T01:39:12;5.20;99.90
54930;DHT22;40833;53.238;6.576;2024-03-23T01:41:38;5.20;99.90
54930;DHT22;40833;53.238;6.576;2024-03-23T01:44:07;5.60;99.90
54930;DHT22;40833;53.238;6.576;2024-03-23T01:46:34;5.10;99.90
54930;DHT22;40833;53.238;6.576;2024-03-23T01:49:00;5.10;99.90
54930;DHT22;40833;53.238;6.576;2024-03-23T01:51:27;6.60;99.90
54930;DHT22;40833;53.238;6.576;2024-03-23T01:53:54;5.10;99.90
54930;DHT22;40833;53.238;6.576;2024-03-23T01:56:21;5.00;99.90
54930;DHT22;40833;53.238;6.576;2024-03-23T01:58:47;5.00;99.90
54930;DHT22;40833;53.238;6.576;2024-03-23T02:01:12;5.00;99.90
54930;DHT22;40833;53.238;6.576;2024-03-23T02:03:38;5.00;99.90
54930;DHT22;40833;53.238;6.576;2024-03-23T02:06:04;5.00;99.90
54930;DHT22;40833;53.238;6.576;2024-03-23T02:08:32;4.90;99.90
54930;DHT22;40833;53.238;6.576;2024-03-23T02:10:58;4.90;99.90
54930;DHT22;40833;53.238;6.576;2024-03-23T02:13:24;4.90;99.90
54930;DHT22;40833;53.238;6.576;2024-03-23T02:15:50;4.90;99.90
54930;DHT22;40833;53.238;6.576;2024-03-23T02:18:15;4.90;99.90
54930;DHT22;40833;53.238;6.576;2024-03-23T02:20:41;4.90;99.90
54930;DHT22;40833;53.238;6.576;2024-03-23T02:23:16;4.90;99.90
54930;DHT22;40833;53.238;6.576;2024-03-23T02:25:43;4.90;99.90
54930;DHT22;40833;53.238;6.576;2024-03-23T02:28:09;7.00;99.90
54930;DHT22;40833;53.238;6.576;2024-03-23T02:30:34;4.90;99.90
54930;DHT22;40833;53.238;6.576;2024-03-23T02:33:00;4.80;99.90
54930;DHT22;40833;53.238;6.576;2024-03-23T02:35:26;5.10;99.90
54930;DHT22;40833;53.238;6.576;2024-03-23T02:37:51;4.90;99.90
54930;DHT22;40833;53.238;6.576;2024-03-23T02:40:19;4.90;99.90
54930;DHT22;40833;53.238;6.576;2024-03-23T02:42:45;4.90;99.90
54930;DHT22;40833;53.238;6.576;2024-03-23T02:45:10;4.90;99.90
54930;DHT22;40833;53.238;6.576;2024-03-23T02:47:36;6.70;99.90
54930;DHT22;40833;53.238;6.576;2024-03-23T02:50:02;5.00;99.90
54930;DHT22;40833;53.238;6.576;2024-03-23T02:52:27;4.80;99.90
54930;DHT22;40833;53.238;6.576;2024-03-23T02:54:53;5.60;99.90
54930;DHT22;40833;53.238;6.576;2024-03-23T02:57:19;5.50;99.90
54930;DHT22;40833;53.238;6.576;2024-03-23T02:59:44;5.60;99.90
54930;DHT22;40833;53.238;6.576;2024-03-23T03:02:11;4.90;99.90
54930;DHT22;40833;53.238;6.576;2024-03-23T03:04:37;4.80;99.90
54930;DHT22;40833;53.238;6.576;2024-03-23T03:07:02;4.80;99.90
54930;DHT22;40833;53.238;6.576;2024-03-23T03:09:29;4.80;99.90
54930;DHT22;40833;53.238;6.576;2024-03-23T03:11:55;4.70;99.90
54930;DHT22;40833;53.238;6.576;2024-03-23T03:14:21;4.70;99.90
54930;DHT22;40833;53.238;6.576;2024-03-23T03:16:46;4.70;99.90
54930;DHT22;40833;53.238;6.576;2024-03-23T03:19:12;4.70;99.90
54930;DHT22;40833;53.238;6.576;2024-03-23T03:21:38;5.50;99.90
54930;DHT22;40833;53.238;6.576;2024-03-23T03:24:05;6.00;99.90
54930;DHT22;40833;53.238;6.576;2024-03-23T03:26:32;4.80;99.90
54930;DHT22;40833;53.238;6.576;2024-03-23T03:28:57;5.50;99.90
54930;DHT22;40833;53.238;6.576;2024-03-23T03:31:23;4.80;99.90
54930;DHT22;40833;53.238;6.576;2024-03-23T03:33:50;4.70;99.90
54930;DHT22;40833;53.238;6.576;2024-03-23T03:36:16;5.90;99.90
54930;DHT22;40833;53.238;6.576;2024-03-23T03:38:42;5.20;99.90
54930;DHT22;40833;53.238;6.576;2024-03-23T03:41:07;4.70;99.90
54930;DHT22;40833;53.238;6.576;2024-03-23T03:43:33;4.60;99.90
54930;DHT22;40833;53.238;6.576;2024-03-23T03:46:00;4.60;99.90
54930;DHT22;40833;53.238;6.576;2024-03-23T03:48:26;4.60;99.90
54930;DHT22;40833;53.238;6.576;2024-03-23T03:50:52;6.10;99.90
54930;DHT22;40833;53.238;6.576;2024-03-23T03:53:19;5.20;99.90
54930;DHT22;40833;53.238;6.576;2024-03-23T03:55:44;4.60;99.90
54930;DHT22;40833;53.238;6.576;2024-03-23T03:58:10;5.90;99.90
54930;DHT22;40833;53.238;6.576;2024-03-23T04:00:36;4.50;99.90
54930;DHT22;40833;53.238;6.576;2024-03-23T04:03:02;5.20;99.90
54930;DHT22;40833;53.238;6.576;2024-03-23T04:05:28;4.40;99.90
54930;DHT22;40833;53.238;6.576;2024-03-23T04:07:54;4.40;99.90
54930;DHT22;40833;53.238;6.576;2024-03-23T04:10:20;4.40;99.90
54930;DHT22;40833;53.238;6.576;2024-03-23T04:12:46;4.30;99.90
54930;DHT22;40833;53.238;6.576;2024-03-23T04:15:12;4.30;99.90
54930;DHT22;40833;53.238;6.576;2024-03-23T04:17:38;4.20;99.90
54930;DHT22;40833;53.238;6.576;2024-03-23T04:20:04;4.20;99.90
54930;DHT22;40833;53.238;6.576;2024-03-23T04:22:34;4.20;99.90
54930;DHT22;40833;53.238;6.576;2024-03-23T04:25:00;2.60;99.90
54930;DHT22;40833;53.238;6.576;2024-03-23T04:27:35;4.00;99.90
54930;DHT22;40833;53.238;6.576;2024-03-23T04:30:01;4.20;99.90
54930;DHT22;40833;53.238;6.576;2024-03-23T04:32:27;5.70;99.90
54930;DHT22;40833;53.238;6.576;2024-03-23T04:34:54;4.80;99.90
54930;DHT22;40833;53.238;6.576;2024-03-23T04:37:22;4.20;99.90
54930;DHT22;40833;53.238;6.576;2024-03-23T04:39:48;4.20;99.90
54930;DHT22;40833;53.238;6.576;2024-03-23T04:42:17;4.10;99.90
54930;DHT22;40833;53.238;6.576;2024-03-23T04:44:43;4.10;99.90
54930;DHT22;40833;53.238;6.576;2024-03-23T04:47:09;5.90;99.90
54930;DHT22;40833;53.238;6.576;2024-03-23T04:49:34;5.00;99.90
54930;DHT22;40833;53.238;6.576;2024-03-23T04:52:03;4.20;99.90
54930;DHT22;40833;53.238;6.576;2024-03-23T04:54:29;4.20;99.90
54930;DHT22;40833;53.238;6.576;2024-03-23T04:56:55;5.40;99.90
54930;DHT22;40833;53.238;6.576;2024-03-23T04:59:21;4.10;99.90
54930;DHT22;40833;53.238;6.576;2024-03-23T05:01:47;4.10;99.90
54930;DHT22;40833;53.238;6.576;2024-03-23T05:04:13;4.10;99.90
54930;DHT22;40833;53.238;6.576;2024-03-23T05:06:38;4.60;99.90
54930;DHT22;40833;53.238;6.576;2024-03-23T05:09:04;4.20;99.90
54930;DHT22;40833;53.238;6.576;2024-03-23T05:11:36;4.10;99.90
54930;DHT22;40833;53.238;6.576;2024-03-23T05:14:01;5.50;99.90
54930;DHT22;40833;53.238;6.576;2024-03-23T05:16:28;6.00;99.90
54930;DHT22;40833;53.238;6.576;2024-03-23T05:18:54;4.10;99.90
54930;DHT22;40833;53.238;6.576;2024-03-23T05:21:19;4.20;99.90
54930;DHT22;40833;53.238;6.576;2024-03-23T05:23:45;4.30;99.90
54930;DHT22;40833;53.238;6.576;2024-03-23T05:26:11;6.60;99.90
54930;DHT22;40833;53.238;6.576;2024-03-23T05:28:36;6.00;99.90
54930;DHT22;40833;53.238;6.576;2024-03-23T05:31:02;6.90;99.90
54930;DHT22;40833;53.238;6.576;2024-03-23T05:33:28;4.60;99.90
54930;DHT22;40833;53.238;6.576;2024-03-23T05:35:57;6.80;99.90
54930;DHT22;40833;53.238;6.576;2024-03-23T05:38:23;4.10;99.90
54930;DHT22;40833;53.238;6.576;2024-03-23T05:40:59;4.10;99.90
54930;DHT22;40833;53.238;6.576;2024-03-23T05:43:26;4.30;99.90
54930;DHT22;40833;53.238;6.576;2024-03-23T05:45:59;4.80;99.90
54930;DHT22;40833;53.238;6.576;2024-03-23T05:48:26;4.30;99.90
54930;DHT22;40833;53.238;6.576;2024-03-23T05:50:52;4.70;99.90
54930;DHT22;40833;53.238;6.576;2024-03-23T05:53:18;4.10;99.90
54930;DHT22;40833;53.238;6.576;2024-03-23T05:55:46;4.20;99.90
54930;DHT22;40833;53.238;6.576;2024-03-23T05:58:17;4.90;99.90
54930;DHT22;40833;53.238;6.576;2024-03-23T06:00:44;4.40;99.90
54930;DHT22;40833;53.238;6.576;2024-03-23T06:03:10;6.00;99.90
54930;DHT22;40833;53.238;6.576;2024-03-23T06:05:37;6.30;99.90
54930;DHT22;40833;53.238;6.576;2024-03-23T06:08:03;4.60;99.90
54930;DHT22;40833;53.238;6.576;2024-03-23T06:10:28;4.70;99.90
54930;DHT22;40833;53.238;6.576;2024-03-23T06:12:54;4.80;99.90
54930;DHT22;40833;53.238;6.576;2024-03-23T06:15:20;4.90;99.90
54930;DHT22;40833;53.238;6.576;2024-03-23T06:17:46;4.50;99.90
54930;DHT22;40833;53.238;6.576;2024-03-23T06:20:32;5.20;99.90
54930;DHT22;40833;53.238;6.576;2024-03-23T06:22:58;5.20;99.90
54930;DHT22;40833;53.238;6.576;2024-03-23T06:25:24;5.20;99.90
54930;DHT22;40833;53.238;6.576;2024-03-23T06:27:55;6.10;99.90
54930;DHT22;40833;53.238;6.576;2024-03-23T06:30:23;6.40;99.90
54930;DHT22;40833;53.238;6.576;2024-03-23T06:33:07;2.30;99.90
54930;DHT22;40833;53.238;6.576;2024-03-23T06:35:41;5.90;99.90
54930;DHT22;40833;53.238;6.576;2024-03-23T06:38:10;5.30;99.90
54930;DHT22;40833;53.238;6.576;2024-03-23T06:40:38;5.30;99.90
54930;DHT22;40833;53.238;6.576;2024-03-23T06:43:04;5.40;99.90
54930;DHT22;40833;53.238;6.576;2024-03-23T06:45:33;5.20;99.90
54930;DHT22;40833;53.238;6.576;2024-03-23T06:47:59;5.40;99.90
54930;DHT22;40833;53.238;6.576;2024-03-23T06:50:34;4.50;99.90
54930;DHT22;40833;53.238;6.576;2024-03-23T06:53:01;5.30;99.90
54930;DHT22;40833;53.238;6.576;2024-03-23T06:55:28;5.70;99.90
54930;DHT22;40833;53.238;6.576;2024-03-23T06:57:54;6.00;99.90
54930;DHT22;40833;53.238;6.576;2024-03-23T07:00:22;5.90;99.90
54930;DHT22;40833;53.238;6.576;2024-03-23T07:02:51;6.70;99.90
54930;DHT22;40833;53.238;6.576;2024-03-23T07:05:17;6.10;99.90
54930;DHT22;40833;53.238;6.576;2024-03-23T07:07:43;8.30;99.90
54930;DHT22;40833;53.238;6.576;2024-03-23T07:10:09;5.90;99.90
54930;DHT22;40833;53.238;6.576;2024-03-23T07:12:35;5.90;99.90
54930;DHT22;40833;53.238;6.576;2024-03-23T07:15:04;5.20;99.90
54930;DHT22;40833;53.238;6.576;2024-03-23T07:17:33;6.30;99.90
54930;DHT22;40833;53.238;6.576;2024-03-23T07:20:03;8.70;99.90
54930;DHT22;40833;53.238;6.576;2024-03-23T07:22:36;3.80;99.90
54930;DHT22;40833;53.238;6.576;2024-03-23T07:25:08;8.70;99.90
54930;DHT22;40833;53.238;6.576;2024-03-23T07:27:36;6.00;99.90
54930;DHT22;40833;53.238;6.576;2024-03-23T07:30:02;6.20;99.90
54930;DHT22;40833;53.238;6.576;2024-03-23T07:32:28;6.20;99.90
54930;DHT22;40833;53.238;6.576;2024-03-23T07:34:54;6.00;99.90
54930;DHT22;40833;53.238;6.576;2024-03-23T07:37:19;6.40;99.90
54930;DHT22;40833;53.238;6.576;2024-03-23T07:39:45;5.80;99.90
54930;DHT22;40833;53.238;6.576;2024-03-23T07:42:11;5.80;99.90
54930;DHT22;40833;53.238;6.576;2024-03-23T07:44:36;5.80;99.90
54930;DHT22;40833;53.238;6.576;2024-03-23T07:47:03;5.90;99.90
54930;DHT22;40833;53.238;6.576;2024-03-23T07:49:29;5.90;99.90
54930;DHT22;40833;53.238;6.576;2024-03-23T07:51:55;6.00;99.90
54930;DHT22;40833;53.238;6.576;2024-03-23T07:54:21;6.00;99.90
54930;DHT22;40833;53.238;6.576;2024-03-23T07:56:46;6.10;99.90
54930;DHT22;40833;53.238;6.576;2024-03-23T07:59:12;6.30;99.90
54930;DHT22;40833;53.238;6.576;2024-03-23T08:01:38;6.30;99.90
54930;DHT22;40833;53.238;6.576;2024-03-23T08:04:04;6.40;99.90
54930;DHT22;40833;53.238;6.576;2024-03-23T08:06:29;6.70;99.90
54930;DHT22;40833;53.238;6.576;2024-03-23T08:08:56;7.00;99.90
54930;DHT22;40833;53.238;6.576;2024-03-23T08:11:29;7.70;99.90
54930;DHT22;40833;53.238;6.576;2024-03-23T08:13:56;7.30;99.90
54930;DHT22;40833;53.238;6.576;2024-03-23T08:16:22;7.10;99.90
54930;DHT22;40833;53.238;6.576;2024-03-23T08:18:48;7.90;99.90
54930;DHT22;40833;53.238;6.576;2024-03-23T08:21:16;7.50;99.90
54930;DHT22;40833;53.238;6.576;2024-03-23T08:23:41;7.50;99.90
54930;DHT22;40833;53.238;6.576;2024-03-23T08:26:12;6.50;99.90
54930;DHT22;40833;53.238;6.576;2024-03-23T08:28:38;6.40;99.90
54930;DHT22;40833;53.238;6.576;2024-03-23T08:31:06;6.40;99.90
54930;DHT22;40833;53.238;6.576;2024-03-23T08:33:33;6.70;99.90
54930;DHT22;40833;53.238;6.576;2024-03-23T08:36:04;6.40;99.90
54930;DHT22;40833;53.238;6.576;2024-03-23T08:38:30;7.10;99.90
54930;DHT22;40833;53.238;6.576;2024-03-23T08:41:03;6.50;99.90
54930;DHT22;40833;53.238;6.576;2024-03-23T08:43:29;6.60;99.90
54930;DHT22;40833;53.238;6.576;2024-03-23T08:46:13;6.80;99.90
54930;DHT22;40833;53.238;6.576;2024-03-23T08:48:41;8.70;99.90
54930;DHT22;40833;53.238;6.576;2024-03-23T08:51:09;7.60;99.90
54930;DHT22;40833;53.238;6.576;2024-03-23T08:53:36;7.00;99.90
54930;DHT22;40833;53.238;6.576;2024-03-23T08:56:03;7.10;99.90
54930;DHT22;40833;53.238;6.576;2024-03-23T08:58:30;7.20;99.90
54930;DHT22;40833;53.238;6.576;2024-03-23T09:01:03;9.30;99.90
54930;DHT22;40833;53.238;6.576;2024-03-23T09:03:29;7.50;99.90
54930;DHT22;40833;53.238;6.576;2024-03-23T09:05:55;8.00;99.90
54930;DHT22;40833;53.238;6.576;2024-03-23T09:08:21;7.90;99.90
54930;DHT22;40833;53.238;6.576;2024-03-23T09:10:47;8.10;99.90
54930;DHT22;40833;53.238;6.576;2024-03-23T09:13:13;8.40;99.90
54930;DHT22;40833;53.238;6.576;2024-03-23T09:15:52;8.30;99.90
54930;DHT22;40833;53.238;6.576;2024-03-23T09:18:22;8.40;99.90
54930;DHT22;40833;53.238;6.576;2024-03-23T09:20:48;8.50;99.90
54930;DHT22;40833;53.238;6.576;2024-03-23T09:23:13;8.70;99.90
54930;DHT22;40833;53.238;6.576;2024-03-23T09:25:39;8.80;99.90
54930;DHT22;40833;53.238;6.576;2024-03-23T09:28:08;8.10;99.90
54930;DHT22;40833;53.238;6.576;2024-03-23T09:30:35;8.80;99.90
54930;DHT22;40833;53.238;6.576;2024-03-23T09:33:02;9.50;99.90
54930;DHT22;40833;53.238;6.576;2024-03-23T09:35:28;8.30;99.90
54930;DHT22;40833;53.238;6.576;2024-03-23T09:37:54;8.30;99.90
54930;DHT22;40833;53.238;6.576;2024-03-23T09:40:20;7.30;99.90
54930;DHT22;40833;53.238;6.576;2024-03-23T09:42:52;7.50;99.90
54930;DHT22;40833;53.238;6.576;2024-03-23T09:45:21;6.80;99.90
54930;DHT22;40833;53.238;6.576;2024-03-23T09:47:50;6.90;99.90
54930;DHT22;40833;53.238;6.576;2024-03-23T09:50:17;6.40;99.90
54930;DHT22;40833;53.238;6.576;2024-03-23T09:52:42;7.50;99.90
54930;DHT22;40833;53.238;6.576;2024-03-23T09:55:09;7.00;99.90
54930;DHT22;40833;53.238;6.576;2024-03-23T09:57:40;6.40;99.90
54930;DHT22;40833;53.238;6.576;2024-03-23T10:00:09;5.10;99.90
54930;DHT22;40833;53.238;6.576;2024-03-23T10:02:38;6.40;99.90
54930;DHT22;40833;53.238;6.576;2024-03-23T10:05:04;7.20;99.90
54930;DHT22;40833;53.238;6.576;2024-03-23T10:07:30;3.70;99.90
54930;DHT22;40833;53.238;6.576;2024-03-23T10:09:56;6.40;99.90
54930;DHT22;40833;53.238;6.576;2024-03-23T10:12:23;6.60;99.90
54930;DHT22;40833;53.238;6.576;2024-03-23T10:14:49;6.70;99.90
54930;DHT22;40833;53.238;6.576;2024-03-23T10:17:15;6.80;99.90
54930;DHT22;40833;53.238;6.576;2024-03-23T10:19:49;6.90;99.90
54930;DHT22;40833;53.238;6.576;2024-03-23T10:22:19;7.20;99.90
54930;DHT22;40833;53.238;6.576;2024-03-23T10:24:47;7.60;99.90
54930;DHT22;40833;53.238;6.576;2024-03-23T10:27:18;7.80;99.90
54930;DHT22;40833;53.238;6.576;2024-03-23T10:29:48;7.90;99.90
54930;DHT22;40833;53.238;6.576;2024-03-23T10:32:15;8.20;99.90
54930;DHT22;40833;53.238;6.576;2024-03-23T10:34:41;8.60;99.90
54930;DHT22;40833;53.238;6.576;2024-03-23T10:37:08;8.70;99.90
54930;DHT22;40833;53.238;6.576;2024-03-23T10:39:38;8.70;99.90
54930;DHT22;40833;53.238;6.576;2024-03-23T10:42:10;8.80;99.90
54930;DHT22;40833;53.238;6.576;2024-03-23T10:44:37;8.80;99.90
54930;DHT22;40833;53.238;6.576;2024-03-23T10:47:04;8.60;99.90
54930;DHT22;40833;53.238;6.576;2024-03-23T10:49:33;8.80;99.90
54930;DHT22;40833;53.238;6.576;2024-03-23T10:52:07;9.10;99.90
54930;DHT22;40833;53.238;6.576;2024-03-23T10:54:33;9.50;99.90
54930;DHT22;40833;53.238;6.576;2024-03-23T10:57:12;10.90;99.90
54930;DHT22;40833;53.238;6.576;2024-03-23T10:59:42;9.60;99.90
54930;DHT22;40833;53.238;6.576;2024-03-23T11:02:21;11.10;99.90
54930;DHT22;40833;53.238;6.576;2024-03-23T11:04:48;9.40;99.90
54930;DHT22;40833;53.238;6.576;2024-03-23T11:07:30;9.10;99.90
54930;DHT22;40833;53.238;6.576;2024-03-23T11:10:00;8.60;99.90
54930;DHT22;40833;53.238;6.576;2024-03-23T11:12:29;8.10;99.90
54930;DHT22;40833;53.238;6.576;2024-03-23T11:15:01;7.80;99.90
54930;DHT22;40833;53.238;6.576;2024-03-23T11:17:29;7.60;99.90
54930;DHT22;40833;53.238;6.576;2024-03-23T11:20:08;7.50;99.90
54930;DHT22;40833;53.238;6.576;2024-03-23T11:22:45;7.80;99.90
54930;DHT22;40833;53.238;6.576;2024-03-23T11:25:25;7.80;99.90
54930;DHT22;40833;53.238;6.576;2024-03-23T11:27:55;8.00;99.90
54930;DHT22;40833;53.238;6.576;2024-03-23T11:30:28;8.20;99.90
54930;DHT22;40833;53.238;6.576;2024-03-23T11:32:56;8.80;99.90
54930;DHT22;40833;53.238;6.576;2024-03-23T11:35:31;9.00;99.90
54930;DHT22;40833;53.238;6.576;2024-03-23T11:38:25;8.60;99.90
54930;DHT22;40833;53.238;6.576;2024-03-23T11:40:51;8.00;99.90
54930;DHT22;40833;53.238;6.576;2024-03-23T11:43:20;9.00;99.90
54930;DHT22;40833;53.238;6.576;2024-03-23T11:45:55;11.00;99.90
54930;DHT22;40833;53.238;6.576;2024-03-23T11:48:27;9.00;99.90
54930;DHT22;40833;53.238;6.576;2024-03-23T11:50:57;11.80;99.90
54930;DHT22;40833;53.238;6.576;2024-03-23T11:53:24;9.00;99.90
54930;DHT22;40833;53.238;6.576;2024-03-23T11:56:00;10.40;99.90
54930;DHT22;40833;53.238;6.576;2024-03-23T11:58:27;8.70;99.90
54930;DHT22;40833;53.238;6.576;2024-03-23T12:01:00;6.50;99.90
54930;DHT22;40833;53.238;6.576;2024-03-23T12:03:33;8.60;99.90
54930;DHT22;40833;53.238;6.576;2024-03-23T12:06:01;8.60;99.90
54930;DHT22;40833;53.238;6.576;2024-03-23T12:08:32;8.60;99.90
54930;DHT22;40833;53.238;6.576;2024-03-23T12:11:08;6.20;99.90
54930;DHT22;40833;53.238;6.576;2024-03-23T12:13:37;8.70;99.90
54930;DHT22;40833;53.238;6.576;2024-03-23T12:16:17;8.40;99.90
54930;DHT22;40833;53.238;6.576;2024-03-23T12:18:48;8.20;99.90
54930;DHT22;40833;53.238;6.576;2024-03-23T12:21:15;8.20;99.90
54930;DHT22;40833;53.238;6.576;2024-03-23T12:23:45;7.90;99.90
54930;DHT22;40833;53.238;6.576;2024-03-23T12:26:15;7.70;99.90
54930;DHT22;40833;53.238;6.576;2024-03-23T12:28:45;7.80;99.90
54930;DHT22;40833;53.238;6.576;2024-03-23T12:31:17;8.90;99.90
54930;DHT22;40833;53.238;6.576;2024-03-23T12:33:43;6.80;99.90
54930;DHT22;40833;53.238;6.576;2024-03-23T12:36:10;6.90;99.90
54930;DHT22;40833;53.238;6.576;2024-03-23T12:38:40;8.40;99.90
54930;DHT22;40833;53.238;6.576;2024-03-23T12:41:06;7.20;99.90
54930;DHT22;40833;53.238;6.576;2024-03-23T12:43:38;8.30;99.90
54930;DHT22;40833;53.238;6.576;2024-03-23T12:46:04;7.00;99.90
54930;DHT22;40833;53.238;6.576;2024-03-23T12:48:30;6.10;99.90
54930;DHT22;40833;53.238;6.576;2024-03-23T12:50:59;7.70;99.90
54930;DHT22;40833;53.238;6.576;2024-03-23T12:53:27;8.20;99.90
54930;DHT22;40833;53.238;6.576;2024-03-23T12:55:54;9.00;99.90
54930;DHT22;40833;53.238;6.576;2024-03-23T12:58:22;7.90;99.90
54930;DHT22;40833;53.238;6.576;2024-03-23T13:00:51;5.90;99.90
54930;DHT22;40833;53.238;6.576;2024-03-23T13:03:16;8.70;99.90
54930;DHT22;40833;53.238;6.576;2024-03-23T13:05:43;7.50;99.90
54930;DHT22;40833;53.238;6.576;2024-03-23T13:08:09;6.90;99.90
54930;DHT22;40833;53.238;6.576;2024-03-23T13:10:38;8.20;99.90
54930;DHT22;40833;53.238;6.576;2024-03-23T13:13:11;9.10;99.90
54930;DHT22;40833;53.238;6.576;2024-03-23T13:15:37;6.60;99.90
54930;DHT22;40833;53.238;6.576;2024-03-23T13:18:03;8.40;99.90
54930;DHT22;40833;53.238;6.576;2024-03-23T13:20:28;8.60;99.90
54930;DHT22;40833;53.238;6.576;2024-03-23T13:22:54;7.80;99.90
54930;DHT22;40833;53.238;6.576;2024-03-23T13:25:22;9.00;99.90
54930;DHT22;40833;53.238;6.576;2024-03-23T13:27:54;9.10;99.90
54930;DHT22;40833;53.238;6.576;2024-03-23T13:30:20;9.20;99.90
54930;DHT22;40833;53.238;6.576;2024-03-23T13:32:46;9.00;99.90
54930;DHT22;40833;53.238;6.576;2024-03-23T13:35:14;8.90;99.90
54930;DHT22;40833;53.238;6.576;2024-03-23T13:37:56;9.00;99.90
54930;DHT22;40833;53.238;6.576;2024-03-23T13:40:22;9.30;99.90
54930;DHT22;40833;53.238;6.576;2024-03-23T13:42:50;8.80;99.90
54930;DHT22;40833;53.238;6.576;2024-03-23T13:45:24;7.80;99.90
54930;DHT22;40833;53.238;6.576;2024-03-23T13:47:50;8.10;99.90
54930;DHT22;40833;53.238;6.576;2024-03-23T13:50:16;7.70;99.90
54930;DHT22;40833;53.238;6.576;2024-03-23T13:52:44;7.40;99.90
54930;DHT22;40833;53.238;6.576;2024-03-23T13:55:10;10.10;99.90
54930;DHT22;40833;53.238;6.576;2024-03-23T13:57:39;7.70;99.90
54930;DHT22;40833;53.238;6.576;2024-03-23T14:00:09;8.40;99.90
54930;DHT22;40833;53.238;6.576;2024-03-23T14:02:52;7.30;99.90
54930;DHT22;40833;53.238;6.576;2024-03-23T14:05:21;8.10;99.90
54930;DHT22;40833;53.238;6.576;2024-03-23T14:07:52;8.70;99.90
54930;DHT22;40833;53.238;6.576;2024-03-23T14:10:17;8.20;99.90
54930;DHT22;40833;53.238;6.576;2024-03-23T14:12:55;8.40;99.90
54930;DHT22;40833;53.238;6.576;2024-03-23T14:15:26;9.10;99.90
54930;DHT22;40833;53.238;6.576;2024-03-23T14:17:58;9.60;99.90
54930;DHT22;40833;53.238;6.576;2024-03-23T14:20:27;7.50;99.90
54930;DHT22;40833;53.238;6.576;2024-03-23T14:23:01;9.00;99.90
54930;DHT22;40833;53.238;6.576;2024-03-23T14:25:52;8.90;99.90
54930;DHT22;40833;53.238;6.576;2024-03-23T14:28:23;8.90;99.90
54930;DHT22;40833;53.238;6.576;2024-03-23T14:30:50;9.50;99.90
54930;DHT22;40833;53.238;6.576;2024-03-23T14:33:19;9.80;99.90
54930;DHT22;40833;53.238;6.576;2024-03-23T14:35:55;9.50;99.90
54930;DHT22;40833;53.238;6.576;2024-03-23T14:38:29;9.60;99.90
54930;DHT22;40833;53.238;6.576;2024-03-23T14:41:09;10.00;99.90
54930;DHT22;40833;53.238;6.576;2024-03-23T14:43:42;7.10;99.90
54930;DHT22;40833;53.238;6.576;2024-03-23T14:46:15;10.50;99.90
54930;DHT22;40833;53.238;6.576;2024-03-23T14:48:50;8.60;99.90
54930;DHT22;40833;53.238;6.576;2024-03-23T14:51:19;10.40;99.90
54930;DHT22;40833;53.238;6.576;2024-03-23T14:53:53;10.70;99.90
54930;DHT22;40833;53.238;6.576;2024-03-23T14:56:22;10.90;99.90
54930;DHT22;40833;53.238;6.576;2024-03-23T14:58:58;11.00;99.90
54930;DHT22;40833;53.238;6.576;2024-03-23T15:01:27;10.50;99.90
54930;DHT22;40833;53.238;6.576;2024-03-23T15:03:55;10.90;99.90
54930;DHT22;40833;53.238;6.576;2024-03-23T15:06:27;8.20;99.90
54930;DHT22;40833;53.238;6.576;2024-03-23T15:08:53;9.10;99.90
54930;DHT22;40833;53.238;6.576;2024-03-23T15:11:20;10.20;99.90
54930;DHT22;40833;53.238;6.576;2024-03-23T15:13:49;10.10;99.90
54930;DHT22;40833;53.238;6.576;2024-03-23T15:16:21;10.20;99.90
54930;DHT22;40833;53.238;6.576;2024-03-23T15:18:51;10.60;99.90
54930;DHT22;40833;53.238;6.576;2024-03-23T15:21:17;11.30;99.90
54930;DHT22;40833;53.238;6.576;2024-03-23T15:23:50;11.50;99.90
54930;DHT22;40833;53.238;6.576;2024-03-23T15:26:16;9.90;99.90
54930;DHT22;40833;53.238;6.576;2024-03-23T15:28:42;11.60;99.90
54930;DHT22;40833;53.238;6.576;2024-03-23T15:31:23;11.70;99.90
54930;DHT22;40833;53.238;6.576;2024-03-23T15:33:53;11.60;99.90
54930;DHT22;40833;53.238;6.576;2024-03-23T15:36:20;11.60;99.90
54930;DHT22;40833;53.238;6.576;2024-03-23T15:38:46;11.30;99.90
54930;DHT22;40833;53.238;6.576;2024-03-23T15:41:12;11.90;99.90
54930;DHT22;40833;53.238;6.576;2024-03-23T15:43:38;10.60;99.90
54930;DHT22;40833;53.238;6.576;2024-03-23T15:46:04;10.50;99.90
54930;DHT22;40833;53.238;6.576;2024-03-23T15:48:41;10.30;99.90
54930;DHT22;40833;53.238;6.576;2024-03-23T15:51:12;11.70;99.90
54930;DHT22;40833;53.238;6.576;2024-03-23T15:53:45;9.50;99.90
54930;DHT22;40833;53.238;6.576;2024-03-23T15:56:14;9.20;99.90
54930;DHT22;40833;53.238;6.576;2024-03-23T15:58:41;9.30;99.90
54930;DHT22;40833;53.238;6.576;2024-03-23T16:01:08;9.90;99.90
54930;DHT22;40833;53.238;6.576;2024-03-23T16:03:46;9.50;99.90
54930;DHT22;40833;53.238;6.576;2024-03-23T16:06:14;9.90;99.90
54930;DHT22;40833;53.238;6.576;2024-03-23T16:08:43;9.30;99.90
54930;DHT22;40833;53.238;6.576;2024-03-23T16:11:18;6.80;99.90
54930;DHT22;40833;53.238;6.576;2024-03-23T16:13:45;9.10;99.90
54930;DHT22;40833;53.238;6.576;2024-03-23T16:16:30;9.80;99.90
54930;DHT22;40833;53.238;6.576;2024-03-23T16:18:56;8.60;99.90
54930;DHT22;40833;53.238;6.576;2024-03-23T16:21:22;6.00;99.90
54930;DHT22;40833;53.238;6.576;2024-03-23T16:23:51;9.30;99.90
54930;DHT22;40833;53.238;6.576;2024-03-23T16:26:17;6.40;99.90
54930;DHT22;40833;53.238;6.576;2024-03-23T16:28:45;7.90;99.90
54930;DHT22;40833;53.238;6.576;2024-03-23T16:31:20;8.90;99.90
54930;DHT22;40833;53.238;6.576;2024-03-23T16:33:50;8.80;99.90
54930;DHT22;40833;53.238;6.576;2024-03-23T16:36:20;9.60;99.90
54930;DHT22;40833;53.238;6.576;2024-03-23T16:38:47;8.20;99.90
54930;DHT22;40833;53.238;6.576;2024-03-23T16:41:18;8.20;99.90
54930;DHT22;40833;53.238;6.576;2024-03-23T16:43:49;8.60;99.90
54930;DHT22;40833;53.238;6.576;2024-03-23T16:46:15;8.80;99.90